Time;durP1;ratioP1;P1;durP2;ratioP2;P2;SDS_P1;SDS_P2;PMS_P1;PMS_P2;Temp;Humidity;BMP_temperature;BMP_pressure;BME280_temperature;BME280_humidity;BME280_pressure;Samples;Min_cycle;Max_cycle;Signal;HPM_P1;HPM_P2
2022/04/13 00:02:07;;;;;;;5.37;2.05;;;;;;;4.89;75.48;99163.41;1745526;81;21431;-69
2022/04/13 00:04:36;;;;;;;2.77;1.35;;;;;;;4.86;75.26;99142.22;1746675;81;21031;-69
2022/04/13 00:07:04;;;;;;;5.25;1.50;;;;;;;4.87;75.87;99152.00;1747819;81;20889;-69
2022/04/13 00:09:32;;;;;;;7.15;1.45;;;;;;;4.88;75.35;99158.25;1746760;81;20876;-68
2022/04/13 00:12:00;;;;;;;5.05;1.60;;;;;;;4.89;75.11;99155.80;1745702;81;21133;-69
2022/04/13 00:14:27;;;;;;;4.42;1.65;;;;;;;4.90;74.84;99158.23;1744297;81;21011;-68
2022/04/13 00:16:54;;;;;;;3.55;1.62;;;;;;;4.90;74.68;99158.78;1742493;81;21052;-68
2022/04/13 00:19:23;;;;;;;2.72;1.30;;;;;;;4.90;75.14;99147.89;1747851;81;20920;-68
2022/04/13 00:21:50;;;;;;;3.75;1.30;;;;;;;4.90;74.16;99160.95;1747637;81;20876;-69
2022/04/13 00:24:17;;;;;;;4.55;1.60;;;;;;;4.89;73.77;99157.16;1744220;81;21127;-69
2022/04/13 00:26:43;;;;;;;5.85;1.42;;;;;;;4.90;73.48;99158.23;1744498;81;21100;-69
2022/04/13 00:29:10;;;;;;;3.40;1.37;;;;;;;4.89;73.44;99151.16;1744924;81;20928;-69
2022/04/13 00:31:39;;;;;;;4.05;2.00;;;;;;;4.88;73.69;99149.55;1745372;81;21546;-69
2022/04/13 00:34:11;;;;;;;5.45;1.52;;;;;;;4.88;73.69;99149.55;1715925;81;21027;-68
2022/04/13 00:36:37;;;;;;;3.50;1.72;;;;;;;4.88;72.70;99150.09;1756645;80;21905;-69
2022/04/13 00:39:04;;;;;;;3.37;1.32;;;;;;;4.88;72.67;99140.58;1753600;80;21037;-68
2022/04/13 00:41:34;;;;;;;7.47;2.58;;;;;;;4.86;72.34;99139.50;1758175;80;21482;-68
2022/04/13 00:44:04;;;;;;;3.52;1.40;;;;;;;4.86;72.20;99133.25;1760032;80;20924;-70
2022/04/13 00:46:41;;;;;;;4.85;1.95;;;;;;;4.88;72.48;99132.41;1780408;80;20962;-70
2022/04/13 00:49:04;;;;;;;5.28;1.37;;;;;;;4.87;71.82;99133.52;1774409;80;21174;-69
2022/04/13 00:51:31;;;;;;;3.50;1.67;;;;;;;4.87;71.82;99133.52;1780205;80;20927;-67
2022/04/13 00:54:03;;;;;;;4.67;1.50;;;;;;;4.87;71.71;99119.91;1771549;80;20884;-68
2022/04/13 00:56:29;;;;;;;3.17;1.55;;;;;;;4.87;71.60;99131.61;1773664;80;21039;-68
2022/04/13 00:59:05;;;;;;;3.33;1.30;;;;;;;4.87;71.96;99131.61;1754814;80;20889;-68
2022/04/13 01:01:31;;;;;;;2.55;1.10;;;;;;;4.90;71.26;99121.51;1772824;80;21357;-68
2022/04/13 01:03:59;;;;;;;3.55;1.20;;;;;;;4.90;70.49;99118.79;1760865;80;21596;-68
2022/04/13 01:06:27;;;;;;;6.20;1.50;;;;;;;4.90;70.49;99118.79;1770642;80;20923;-68
2022/04/13 01:08:55;;;;;;;3.62;1.20;;;;;;;4.91;70.65;99119.59;1761468;80;21032;-69
2022/04/13 01:11:24;;;;;;;3.02;1.17;;;;;;;4.90;70.30;99124.23;1772505;80;21027;-69
2022/04/13 01:13:54;;;;;;;5.58;1.17;;;;;;;4.92;71.16;99111.70;1770413;80;21265;-70
2022/04/13 01:16:22;;;;;;;1.95;0.90;;;;;;;4.94;70.20;99119.83;1768475;80;20935;-71
2022/04/13 01:18:51;;;;;;;3.10;1.35;;;;;;;4.97;69.98;99119.25;1754328;80;21499;-68
2022/04/13 01:21:19;;;;;;;4.22;1.15;;;;;;;4.97;69.98;99119.25;1763034;80;21003;-68
2022/04/13 01:23:46;;;;;;;3.83;1.10;;;;;;;4.97;70.01;99114.36;1775391;80;20919;-68
2022/04/13 01:26:13;;;;;;;2.40;1.10;;;;;;;4.97;70.25;99106.20;1760957;80;21144;-70
2022/04/13 01:28:41;;;;;;;4.35;1.35;;;;;;;4.99;70.36;99117.61;1769838;80;20971;-70
2022/04/13 01:31:08;;;;;;;2.95;1.42;;;;;;;4.99;70.36;99117.61;1759159;80;20923;-70
2022/04/13 01:33:36;;;;;;;6.08;1.40;;;;;;;5.00;70.26;99123.31;1764007;80;20900;-68
2022/04/13 01:36:07;;;;;;;6.03;2.05;;;;;;;5.00;70.43;99120.59;1748037;80;20928;-68
2022/04/13 01:38:34;;;;;;;2.97;1.23;;;;;;;4.98;70.57;99115.98;1773388;80;20860;-68
2022/04/13 01:41:07;;;;;;;8.58;1.50;;;;;;;4.99;70.61;99118.97;1766701;80;20979;-68
2022/04/13 01:43:35;;;;;;;2.47;1.20;;;;;;;5.00;70.42;99118.42;1717960;82;20893;-68
2022/04/13 01:46:08;;;;;;;3.20;1.00;;;;;;;5.00;70.47;99107.53;1743269;79;20975;-70
2022/04/13 01:48:40;;;;;;;3.95;1.55;;;;;;;4.98;70.30;99108.63;1761745;79;20897;-69
2022/04/13 01:51:09;;;;;;;4.00;0.98;;;;;;;5.00;70.29;99113.78;1735690;80;21951;-68
2022/04/13 01:53:40;;;;;;;5.35;1.25;;;;;;;5.00;70.37;99105.62;1754857;81;21004;-68
2022/04/13 01:56:11;;;;;;;2.33;1.10;;;;;;;5.00;70.37;99105.62;1734876;80;21492;-68
2022/04/13 01:58:44;;;;;;;4.22;1.02;;;;;;;4.99;70.19;99105.36;1751958;80;21036;-69
2022/04/13 02:01:17;;;;;;;2.17;0.78;;;;;;;4.98;70.15;99118.16;1748212;80;21431;-68
2022/04/13 02:03:46;;;;;;;4.05;1.10;;;;;;;4.98;69.77;99113.27;1759256;80;21038;-69
2022/04/13 02:06:14;;;;;;;2.25;0.93;;;;;;;4.95;70.23;99109.77;1740512;80;20991;-69
2022/04/13 02:08:45;;;;;;;4.17;1.20;;;;;;;4.97;69.80;99115.72;1747537;81;21143;-69
2022/04/13 02:11:15;;;;;;;6.25;1.32;;;;;;;4.97;69.80;99115.72;1743726;81;21002;-68
2022/04/13 02:13:49;;;;;;;4.22;1.00;;;;;;;4.97;69.73;99111.64;1731737;80;27303;-69
2022/04/13 02:16:19;;;;;;;3.55;1.10;;;;;;;4.96;69.58;99116.27;1752713;79;21537;-69
2022/04/13 02:18:50;;;;;;;2.58;0.93;;;;;;;4.96;69.89;99114.91;1755214;80;20933;-69
2022/04/13 02:21:23;;;;;;;1.67;0.80;;;;;;;4.95;69.60;99109.77;1746381;80;20971;-69
2022/04/13 02:24:00;;;;;;;4.58;1.15;;;;;;;4.95;69.60;99109.77;1752331;80;21438;-69
2022/04/13 02:26:26;;;;;;;;;;;;;;;4.96;69.51;99101.86;1758313;80;20945;-69
2022/04/13 02:29:01;;;;;;;3.45;1.20;;;;;;;4.96;69.59;99112.74;1736543;80;20081;-68
2022/04/13 02:31:35;;;;;;;1.62;0.90;;;;;;;4.94;69.58;99114.94;1761995;80;20893;-69
2022/04/13 02:34:10;;;;;;;2.95;1.20;;;;;;;4.94;69.79;99111.67;1743734;80;21489;-68
2022/04/13 02:36:42;;;;;;;4.72;0.98;;;;;;;4.93;69.60;99111.96;1746847;80;21195;-69
2022/04/13 02:39:17;;;;;;;5.95;1.27;;;;;;;4.92;69.70;99104.35;1742557;80;20991;-69
2022/04/13 02:41:45;;;;;;;5.47;1.30;;;;;;;4.91;69.93;99110.89;1749033;80;21232;-69
2022/04/13 02:44:18;;;;;;;6.37;1.30;;;;;;;4.90;70.00;99113.90;1747617;80;21073;-69
2022/04/13 02:46:52;;;;;;;3.52;1.30;;;;;;;4.90;70.49;99105.73;1740685;80;21024;-68
2022/04/13 02:49:21;;;;;;;6.30;2.17;;;;;;;4.90;70.27;99115.25;1736966;80;21097;-69
2022/04/13 02:51:54;;;;;;;3.10;1.65;;;;;;;4.89;70.42;99109.55;1721171;81;20893;-68
2022/04/13 02:54:28;;;;;;;2.30;1.10;;;;;;;4.90;70.49;99101.66;1733535;82;22066;-68
2022/04/13 02:57:05;;;;;;;3.98;1.35;;;;;;;4.88;70.58;99109.30;1722410;81;20975;-68
2022/04/13 02:59:35;;;;;;;3.87;1.45;;;;;;;4.87;71.91;99095.44;1730736;82;21035;-68
2022/04/13 03:02:04;;;;;;;1.98;1.20;;;;;;;4.87;71.54;99110.39;1708478;82;20943;-68
2022/04/13 03:04:36;;;;;;;3.67;1.70;;;;;;;4.85;71.91;99089.47;1714848;83;20969;-68
2022/04/13 03:07:04;;;;;;;7.75;1.80;;;;;;;4.81;72.13;99110.19;1712616;82;21279;-68
2022/04/13 03:09:33;;;;;;;3.50;1.50;;;;;;;4.78;72.35;99109.41;1719077;81;20893;-70
2022/04/13 03:12:06;;;;;;;3.30;1.50;;;;;;;4.75;72.58;99115.42;1745311;81;20987;-69
2022/04/13 03:14:37;;;;;;;3.60;1.67;;;;;;;4.74;74.10;99112.44;1731822;81;20942;-69
2022/04/13 03:17:04;;;;;;;4.30;1.42;;;;;;;4.74;72.87;99111.08;1713741;82;20957;-69
2022/04/13 03:19:32;;;;;;;6.47;2.17;;;;;;;4.71;73.37;99107.02;1724581;81;20879;-69
2022/04/13 03:22:05;;;;;;;4.45;2.10;;;;;;;4.71;72.98;99087.98;1708728;83;21014;-72
2022/04/13 03:24:39;;;;;;;3.95;2.10;;;;;;;4.71;72.98;99087.98;1712929;82;20956;-73
2022/04/13 03:27:08;;;;;;;3.92;1.82;;;;;;;4.73;72.52;99090.42;1729506;81;21695;-73
2022/04/13 03:29:40;;;;;;;4.45;2.20;;;;;;;4.73;71.96;99091.78;1723911;81;20939;-72
2022/04/13 03:32:10;;;;;;;4.15;1.90;;;;;;;4.73;72.10;99102.66;1717979;81;21301;-72
2022/04/13 03:34:40;;;;;;;9.98;2.83;;;;;;;4.71;71.77;99098.87;1722413;81;21064;-69
2022/04/13 03:37:09;;;;;;;6.28;1.67;;;;;;;4.69;71.95;99098.89;1724761;81;20919;-69
2022/04/13 03:39:35;;;;;;;3.25;1.30;;;;;;;4.70;72.03;99089.64;1735045;81;20983;-69
2022/04/13 03:42:08;;;;;;;5.60;1.60;;;;;;;4.68;71.47;99091.83;1728554;81;21435;-69
2022/04/13 03:44:42;;;;;;;4.75;1.07;;;;;;;4.68;71.47;99091.83;1731342;81;21822;-69
2022/04/13 03:47:21;;;;;;;4.35;1.42;;;;;;;4.67;71.64;99088.85;1701560;83;20996;-69
2022/04/13 03:49:50;;;;;;;6.75;1.40;;;;;;;4.69;72.47;99101.06;1709167;83;21443;-69
2022/04/13 03:52:19;;;;;;;3.35;1.60;;;;;;;4.69;72.47;99101.06;1709918;82;21443;-68
2022/04/13 03:54:52;;;;;;;2.80;1.25;;;;;;;4.71;71.46;99096.70;1697062;83;21007;-69
2022/04/13 03:57:23;;;;;;;4.92;1.65;;;;;;;4.70;70.92;99091.00;1705903;82;22103;-69
2022/04/13 03:59:58;;;;;;;2.30;1.00;;;;;;;4.68;70.72;99089.92;1721600;81;20955;-68
2022/04/13 04:02:29;;;;;;;2.67;1.20;;;;;;;4.65;71.07;99093.22;1723394;82;20928;-69
2022/04/13 04:05:00;;;;;;;2.73;1.23;;;;;;;4.65;71.07;99093.22;1749570;82;20900;-69
2022/04/13 04:07:31;;;;;;;3.17;1.22;;;;;;;4.65;70.44;99086.42;1723325;81;21027;-68
2022/04/13 04:10:07;;;;;;;2.77;1.00;;;;;;;4.65;70.36;99097.30;1714108;82;20955;-68
2022/04/13 04:12:43;;;;;;;8.20;1.20;;;;;;;4.66;70.43;99094.84;1687858;83;20887;-68
2022/04/13 04:15:11;;;;;;;2.83;1.20;;;;;;;4.71;69.60;99092.06;1696083;83;21027;-68
2022/04/13 04:17:41;;;;;;;2.67;0.98;;;;;;;4.71;69.60;99092.06;1730574;82;21525;-68
2022/04/13 04:20:12;;;;;;;2.58;1.05;;;;;;;4.72;69.47;99089.61;1711506;82;21094;-69
2022/04/13 04:22:40;;;;;;;1.75;0.85;;;;;;;4.73;68.40;99090.42;1716242;83;21043;-69
2022/04/13 04:25:12;;;;;;;3.65;1.10;;;;;;;4.75;68.42;99103.18;1727370;80;20935;-70
2022/04/13 04:27:42;;;;;;;6.33;1.00;;;;;;;4.76;67.44;99106.97;1753452;79;20952;-70
2022/04/13 04:30:12;;;;;;;1.75;0.90;;;;;;;4.77;66.72;99110.50;1791560;79;20984;-70
2022/04/13 04:32:44;;;;;;;4.78;1.25;;;;;;;4.80;64.81;99107.20;1760825;80;21041;-69
2022/04/13 04:35:14;;;;;;;4.28;0.93;;;;;;;4.80;64.81;99107.20;1770354;80;21106;-70
2022/04/13 04:37:46;;;;;;;2.17;0.72;;;;;;;4.81;64.12;99119.70;1754050;80;20989;-70
2022/04/13 04:40:18;;;;;;;2.50;1.00;;;;;;;4.80;64.45;99120.25;1732273;81;20876;-70
2022/04/13 04:42:52;;;;;;;1.80;0.93;;;;;;;4.80;63.54;99116.17;1750704;80;21481;-71
2022/04/13 04:45:27;;;;;;;5.53;0.93;;;;;;;4.83;63.75;99114.79;1754579;80;20965;-71
2022/04/13 04:48:04;;;;;;;2.45;0.90;;;;;;;4.87;62.58;99122.63;1757051;80;21180;-71
2022/04/13 04:50:31;;;;;;;;;;;;;;;4.86;62.95;99136.78;1766488;80;20976;-68
2022/04/13 04:53:09;;;;;;;6.08;0.80;;;;;;;4.88;64.56;99136.49;1756754;80;20422;-68
2022/04/13 04:55:35;;;;;;;4.00;0.70;;;;;;;4.90;62.44;99122.06;1753258;80;20889;-68
2022/04/13 04:58:04;;;;;;;3.70;1.00;;;;;;;4.92;62.64;99123.39;1740836;81;20928;-69
2022/04/13 05:00:36;;;;;;;15.60;4.53;;;;;;;4.95;62.33;99128.80;1755286;80;21200;-74
2022/04/13 05:03:11;;;;;;;6.08;1.32;;;;;;;4.94;61.93;99123.91;1738444;80;20887;-73
2022/04/13 05:05:41;;;;;;;3.47;1.32;;;;;;;4.94;61.93;99123.91;1749249;81;21502;-69
2022/04/13 05:08:13;;;;;;;2.22;1.10;;;;;;;4.94;61.48;99125.83;1748511;81;20934;-68
2022/04/13 05:10:51;;;;;;;3.95;1.00;;;;;;;4.95;61.90;99122.81;1743689;81;21382;-73
2022/04/13 05:13:20;;;;;;;2.40;0.90;;;;;;;5.00;62.20;99127.39;1760883;80;21896;-67
2022/04/13 05:15:53;;;;;;;1.17;0.60;;;;;;;5.01;61.76;99118.13;1734909;80;21380;-67
2022/04/13 05:18:25;;;;;;;;;;;;;;;5.02;61.24;99117.03;1756111;80;20969;-69
2022/04/13 05:20:54;;;;;;;2.92;1.42;;;;;;;5.01;60.90;99120.84;1762738;80;20130;-76
2022/04/13 05:23:33;;;;;;;;;;;;;;;;;;;;;
2022/04/13 05:26:00;;;;;;;2.77;1.07;;;;;;;5.03;61.73;99122.73;1726487;80;22061;-68
2022/04/13 05:28:33;;;;;;;1.87;0.98;;;;;;;5.07;61.23;99121.60;1745339;80;20980;-68
2022/04/13 05:31:04;;;;;;;4.37;1.17;;;;;;;5.10;61.15;99135.44;1693291;83;21076;-68
2022/04/13 05:33:33;;;;;;;3.15;0.90;;;;;;;5.12;60.54;99122.91;1666267;83;21075;-68
2022/04/13 05:36:09;;;;;;;2.23;1.00;;;;;;;5.13;60.79;99134.86;1742148;80;21011;-68
2022/04/13 05:38:42;;;;;;;2.30;1.10;;;;;;;5.13;60.30;99133.50;1757308;80;21174;-69
2022/04/13 05:41:09;;;;;;;2.90;1.25;;;;;;;5.16;60.70;99126.66;1754450;80;21043;-68
2022/04/13 05:43:38;;;;;;;3.92;1.40;;;;;;;5.15;60.79;99125.86;1745372;81;20895;-68
2022/04/13 05:46:10;;;;;;;3.00;1.00;;;;;;;5.15;60.79;99125.86;1750960;81;20963;-68
2022/04/13 05:48:42;;;;;;;3.12;1.12;;;;;;;5.19;64.46;99111.93;1747567;81;20997;-71
2022/04/13 05:51:09;;;;;;;4.30;0.88;;;;;;;5.20;62.65;99136.66;1726656;81;21173;-72
2022/04/13 05:53:40;;;;;;;2.90;1.47;;;;;;;5.21;62.94;99143.72;1718160;82;21664;-71
2022/04/13 05:56:09;;;;;;;4.25;1.10;;;;;;;5.21;62.94;99143.72;1720441;82;20864;-69
2022/04/13 05:58:40;;;;;;;3.67;0.98;;;;;;;5.24;63.19;99147.77;1725012;82;21111;-75
2022/04/13 06:01:15;;;;;;;2.52;0.88;;;;;;;5.24;64.12;99136.88;1703045;82;20994;-73
2022/04/13 06:03:42;;;;;;;3.92;1.55;;;;;;;5.24;65.66;99145.86;1715375;82;21185;-68
2022/04/13 06:06:13;;;;;;;4.87;1.25;;;;;;;5.23;67.15;99142.88;1696306;82;21515;-70
2022/04/13 06:08:42;;;;;;;4.67;1.00;;;;;;;5.23;67.46;99155.13;1724315;82;20984;-69
2022/04/13 06:11:21;;;;;;;1.85;1.10;;;;;;;5.20;68.17;99148.12;1709415;82;20985;-69
2022/04/13 06:13:52;;;;;;;4.78;1.22;;;;;;;5.14;68.94;99155.53;1707200;82;20984;-71
2022/04/13 06:16:22;;;;;;;4.25;1.10;;;;;;;5.14;68.94;99155.53;1723173;82;20969;-69
2022/04/13 06:18:54;;;;;;;4.47;1.98;;;;;;;5.18;69.18;99156.56;1732039;82;21022;-66
2022/04/13 06:21:27;;;;;;;5.23;1.80;;;;;;;5.19;69.43;99155.47;1728764;81;21012;-84
2022/04/13 06:23:59;;;;;;;7.33;2.45;;;;;;;5.20;69.57;99161.72;1721749;82;20933;-74
2022/04/13 06:26:32;;;;;;;3.98;1.22;;;;;;;5.22;70.32;99158.13;1708459;82;21022;-69
2022/04/13 06:29:00;;;;;;;1.90;0.85;;;;;;;5.24;70.43;99164.91;1729836;82;21083;-70
2022/04/13 06:31:27;;;;;;;6.45;1.00;;;;;;;5.25;70.73;99157.00;1723111;82;21432;-72
2022/04/13 06:33:56;;;;;;;2.67;0.95;;;;;;;5.26;71.05;99157.81;1720548;82;20939;-69
2022/04/13 06:36:28;;;;;;;4.58;1.00;;;;;;;5.26;71.05;99157.81;1717728;82;21557;-66
2022/04/13 06:38:58;;;;;;;4.53;0.90;;;;;;;5.26;70.72;99164.06;1725644;82;21034;-67
2022/04/13 06:41:28;;;;;;;1.85;0.82;;;;;;;5.29;71.03;99168.12;1725463;80;22115;-68
2022/04/13 06:43:58;;;;;;;3.17;1.02;;;;;;;5.35;71.40;99148.45;1771676;80;21004;-68
2022/04/13 06:46:31;;;;;;;2.35;0.72;;;;;;;5.40;71.12;99158.73;1753594;80;20958;-66
2022/04/13 06:49:06;;;;;;;5.90;1.72;;;;;;;5.48;70.81;99165.45;1753560;80;20939;-66
2022/04/13 06:51:35;;;;;;;1.67;0.98;;;;;;;5.53;70.60;99168.91;1755528;80;21391;-67
2022/04/13 06:54:06;;;;;;;3.22;0.90;;;;;;;5.57;70.27;99177.31;1769532;80;20944;-70
2022/04/13 06:56:39;;;;;;;6.58;1.47;;;;;;;5.56;69.47;99186.03;1772070;80;20923;-68
2022/04/13 06:59:08;;;;;;;2.40;1.07;;;;;;;5.50;69.62;99167.33;1769312;80;20930;-67
2022/04/13 07:01:38;;;;;;;4.78;1.25;;;;;;;5.48;69.56;99189.40;1758288;80;20929;-67
2022/04/13 07:04:06;;;;;;;2.50;1.05;;;;;;;5.48;69.56;99189.40;1757471;80;21232;-68
2022/04/13 07:06:34;;;;;;;3.35;1.10;;;;;;;5.49;70.00;99192.94;1758915;80;21177;-68
2022/04/13 07:09:02;;;;;;;3.75;1.30;;;;;;;5.47;69.33;99188.33;1755644;80;21027;-68
2022/04/13 07:11:33;;;;;;;2.87;1.62;;;;;;;5.44;70.01;99190.27;1703637;81;21067;-69
2022/04/13 07:14:01;;;;;;;3.95;1.72;;;;;;;5.41;70.27;99208.55;1729820;80;21082;-68
2022/04/13 07:16:36;;;;;;;5.20;1.80;;;;;;;5.41;70.27;99208.55;1745403;81;20980;-69
2022/04/13 07:19:08;;;;;;;4.15;1.27;;;;;;;5.39;70.43;99206.66;1734304;81;21706;-68
2022/04/13 07:21:35;;;;;;;3.12;1.12;;;;;;;5.36;70.90;99214.05;1728447;81;20986;-66
2022/04/13 07:24:10;;;;;;;4.05;1.30;;;;;;;5.29;73.35;99212.48;1747910;80;21343;-67
2022/04/13 07:26:35;;;;;;;3.00;1.10;;;;;;;5.34;71.61;99212.97;1772985;80;20939;-67
2022/04/13 07:29:03;;;;;;;6.08;1.22;;;;;;;5.34;71.61;99212.97;1758950;80;21055;-67
2022/04/13 07:31:46;;;;;;;4.67;1.25;;;;;;;5.34;71.25;99212.97;1755389;80;21788;-68
2022/04/13 07:34:02;;;;;;;7.45;1.52;;;;;;;5.34;71.25;99212.97;1722447;82;21644;-66
2022/04/13 07:36:37;;;;;;;10.38;1.35;;;;;;;5.28;71.82;99217.66;1729294;80;21067;-66
2022/04/13 07:39:09;;;;;;;6.35;1.52;;;;;;;5.28;71.82;99217.66;1709361;82;20972;-66
2022/04/13 07:41:43;;;;;;;12.65;1.50;;;;;;;5.28;71.98;99213.58;1727050;80;21151;-66
2022/04/13 07:44:14;;;;;;;30.37;5.60;;;;;;;5.28;71.60;99223.66;1745521;81;21247;-66
2022/04/13 07:46:51;;;;;;;5.17;1.40;;;;;;;5.31;71.76;99227.16;1732456;80;21493;-70
2022/04/13 07:49:14;;;;;;;14.35;1.95;;;;;;;5.36;71.59;99234.45;1727076;81;20984;-70
2022/04/13 07:51:44;;;;;;;35.68;6.40;;;;;;;5.37;72.07;99236.08;1725221;82;20985;-68
2022/04/13 07:54:17;;;;;;;11.63;3.25;;;;;;;5.37;72.07;99236.08;1746172;81;21001;-68
2022/04/13 07:56:44;;;;;;;3.60;1.20;;;;;;;5.39;72.22;99242.05;1710866;81;21434;-68
2022/04/13 07:59:16;;;;;;;3.47;1.15;;;;;;;5.44;72.20;99251.52;1690171;83;20974;-67
2022/04/13 08:01:49;;;;;;;5.53;1.27;;;;;;;5.46;71.95;99250.69;1716613;81;20900;-66
2022/04/13 08:04:19;;;;;;;3.08;1.30;;;;;;;5.58;71.39;99246.46;1725525;81;21111;-71
2022/04/13 08:06:46;;;;;;;3.40;1.45;;;;;;;5.58;71.39;99246.46;1745542;81;20861;-70
2022/04/13 08:09:14;;;;;;;8.23;1.20;;;;;;;5.69;72.25;99248.52;1726176;80;21118;-71
2022/04/13 08:11:45;;;;;;;2.77;1.20;;;;;;;5.69;72.25;99248.52;1709788;82;20854;-74
2022/04/13 08:14:13;;;;;;;5.83;3.30;;;;;;;5.77;70.68;99234.80;1710774;82;20941;-71
2022/04/13 08:16:42;;;;;;;10.40;2.98;;;;;;;5.77;70.68;99234.80;1694304;83;20916;-71
2022/04/13 08:19:10;;;;;;;7.17;3.10;;;;;;;5.76;71.14;99248.97;1736407;80;21438;-70
2022/04/13 08:21:39;;;;;;;7.47;2.87;;;;;;;5.84;71.06;99254.30;1766926;80;20979;-72
2022/04/13 08:24:23;;;;;;;;;;;;;;;;;;;;;
2022/04/13 08:26:45;;;;;;;7.37;2.33;;;;;;;5.81;70.76;99257.05;1744910;80;20999;-66
2022/04/13 08:29:18;;;;;;;6.37;2.15;;;;;;;5.76;70.92;99244.89;1736752;80;21030;-66
2022/04/13 08:31:45;;;;;;;;;;;;;;;5.70;70.94;99243.33;1758293;80;20876;-68
2022/04/13 08:34:14;;;;;;;6.87;1.67;;;;;;;5.60;71.72;99265.23;1748504;81;21134;-66
2022/04/13 08:36:40;;;;;;;7.37;2.50;;;;;;;5.63;71.33;99259.20;1749384;81;21558;-66
2022/04/13 08:39:17;;;;;;;5.80;2.42;;;;;;;5.67;71.72;99252.08;1717587;81;21306;-66
2022/04/13 08:41:56;;;;;;;4.50;1.50;;;;;;;5.78;71.86;99251.38;1748036;81;20963;-66
2022/04/13 08:44:52;;;;;;;6.20;1.60;;;;;;;5.78;71.86;99251.38;1747049;81;21470;-69
2022/04/13 08:47:25;;;;;;;4.60;1.55;;;;;;;5.91;72.98;99247.98;1734112;82;20987;-69
2022/04/13 08:49:56;;;;;;;3.37;1.50;;;;;;;6.14;71.91;99258.02;1747729;81;21051;-67
2022/04/13 08:52:33;;;;;;;4.53;1.65;;;;;;;6.30;71.26;99255.90;1744810;81;20987;-71
2022/04/13 08:55:07;;;;;;;3.15;1.12;;;;;;;6.38;71.12;99260.66;1749733;81;20932;-71
2022/04/13 08:57:41;;;;;;;3.50;1.22;;;;;;;6.42;69.56;99258.16;1734900;81;20908;-69
2022/04/13 09:00:17;;;;;;;4.20;1.62;;;;;;;6.42;69.11;99260.88;1748462;81;21521;-68
2022/04/13 09:03:21;;;;;;;4.65;1.82;;;;;;;6.33;69.38;99245.77;1747207;81;20888;-68
2022/04/13 09:05:59;;;;;;;5.90;1.50;;;;;;;6.28;69.79;99255.38;1706608;81;20951;-68
2022/04/13 09:08:52;;;;;;;5.28;1.67;;;;;;;6.31;70.33;99257.52;1744397;81;21415;-66
2022/04/13 09:11:26;;;;;;;4.70;1.50;;;;;;;6.38;70.35;99259.30;1749375;81;26487;-65
2022/04/13 09:13:53;;;;;;;2.90;1.37;;;;;;;6.48;70.00;99262.43;1734729;80;21170;-70
2022/04/13 09:16:24;;;;;;;3.42;1.32;;;;;;;6.52;70.46;99264.27;1717747;81;20987;-69
2022/04/13 09:18:52;;;;;;;6.20;1.37;;;;;;;6.57;69.39;99265.56;1726908;80;21083;-67
2022/04/13 09:21:25;;;;;;;;;;;;;;;6.54;68.81;99275.69;1741996;80;20967;-67
2022/04/13 09:23:55;;;;;;;4.60;1.60;;;;;;;6.45;69.02;99273.38;1733933;81;20131;-67
2022/04/13 09:26:27;;;;;;;3.58;1.40;;;;;;;6.30;70.13;99270.89;1751855;80;22092;-66
2022/04/13 09:29:00;;;;;;;6.37;1.40;;;;;;;6.30;70.13;99270.89;1702966;81;20975;-67
2022/04/13 09:31:28;;;;;;;5.55;1.70;;;;;;;6.32;69.42;99253.69;1737331;80;21001;-68
2022/04/13 09:33:57;;;;;;;3.85;1.40;;;;;;;6.33;69.34;99279.03;1736516;81;21033;-68
2022/04/13 09:36:28;;;;;;;3.80;1.32;;;;;;;6.28;69.41;99289.45;1714451;82;21050;-70
2022/04/13 09:38:59;;;;;;;2.97;1.30;;;;;;;6.28;69.47;99282.64;1713049;82;20964;-69
2022/04/13 09:41:37;;;;;;;5.67;1.60;;;;;;;6.33;69.95;99277.67;1727290;82;21001;-67
2022/04/13 09:44:15;;;;;;;4.30;1.32;;;;;;;6.37;70.03;99275.40;1750788;80;21074;-71
2022/04/13 09:46:42;;;;;;;3.70;1.60;;;;;;;6.40;69.71;99282.98;1730672;80;20957;-68
2022/04/13 09:49:16;;;;;;;3.08;1.42;;;;;;;6.47;69.49;99292.16;1746458;81;20911;-68
2022/04/13 09:51:49;;;;;;;4.62;1.80;;;;;;;6.57;68.88;99281.11;1757263;80;21972;-68
2022/04/13 09:54:22;;;;;;;10.80;2.45;;;;;;;6.64;68.54;99282.91;1747474;81;20920;-70
2022/04/13 09:56:53;;;;;;;3.17;1.47;;;;;;;6.77;68.74;99282.72;1720713;81;20967;-70
2022/04/13 09:59:28;;;;;;;;;;;;;;;6.87;68.65;99278.47;1714007;83;20987;-69
2022/04/13 10:01:55;;;;;;;4.72;1.37;;;;;;;7.03;68.27;99264.80;1697712;82;20145;-68
2022/04/13 10:04:28;;;;;;;4.55;1.20;;;;;;;7.16;66.26;99256.39;1677708;85;21278;-72
2022/04/13 10:07:17;;;;;;;7.08;1.82;;;;;;;7.19;66.24;99263.98;1692906;83;21547;-71
2022/04/13 10:09:44;;;;;;;6.55;1.90;;;;;;;7.25;66.80;99273.70;1698104;82;21011;-69
2022/04/13 10:12:12;;;;;;;3.25;1.55;;;;;;;7.36;65.53;99278.42;1710032;82;22212;-71
2022/04/13 10:14:39;;;;;;;4.45;1.75;;;;;;;7.38;65.47;99248.90;1707904;82;21118;-65
2022/04/13 10:17:12;;;;;;;4.72;1.75;;;;;;;7.38;65.93;99275.65;1721837;82;20983;-66
2022/04/13 10:19:43;;;;;;;5.40;1.57;;;;;;;7.46;66.01;99283.70;1721061;82;20980;-65
2022/04/13 10:22:11;;;;;;;6.42;1.87;;;;;;;7.57;65.23;99272.81;1766532;80;20994;-64
2022/04/13 10:24:40;;;;;;;3.10;1.42;;;;;;;7.63;65.00;99273.78;1731968;81;21129;-65
2022/04/13 10:27:15;;;;;;;4.20;1.32;;;;;;;7.69;64.27;99270.95;1730135;80;20950;-68
2022/04/13 10:29:43;;;;;;;5.05;1.40;;;;;;;7.76;62.94;99283.66;1688626;83;21239;-65
2022/04/13 10:32:16;;;;;;;6.08;1.32;;;;;;;7.78;64.00;99282.23;1745352;80;20964;-64
2022/04/13 10:34:56;;;;;;;4.70;1.72;;;;;;;7.84;64.69;99276.92;1734915;80;21034;-66
2022/04/13 10:37:26;;;;;;;10.68;2.08;;;;;;;7.88;63.43;99285.33;1755670;80;21026;-66
2022/04/13 10:39:53;;;;;;;3.05;1.22;;;;;;;7.84;62.74;99287.86;1742143;80;21015;-67
2022/04/13 10:42:21;;;;;;;6.28;1.55;;;;;;;7.74;62.72;99284.52;1727748;80;21165;-67
2022/04/13 10:44:55;;;;;;;7.80;1.30;;;;;;;7.62;62.81;99291.84;1733959;80;21021;-67
2022/04/13 10:47:29;;;;;;;9.98;1.60;;;;;;;7.55;63.26;99300.43;1737187;81;20997;-67
2022/04/13 10:49:57;;;;;;;8.33;1.32;;;;;;;7.52;63.65;99297.49;1725336;81;20901;-66
2022/04/13 10:52:51;;;;;;;6.78;1.60;;;;;;;7.52;65.20;99299.67;1733178;81;20966;-72
2022/04/13 10:55:19;;;;;;;;;;;;;;;7.56;65.74;99313.53;1740465;81;21590;-66
2022/04/13 10:58:06;;;;;;;5.40;1.35;;;;;;;7.51;65.94;99295.91;1745196;81;20083;-67
2022/04/13 11:00:33;;;;;;;14.63;1.98;;;;;;;7.38;67.37;99319.34;1652872;85;20916;-67
2022/04/13 11:03:05;;;;;;;1.42;0.80;;;;;;;7.27;68.32;99321.99;1721658;81;20956;-67
2022/04/13 11:05:33;;;;;;;6.92;1.80;;;;;;;7.18;68.04;99327.33;1749204;82;21546;-68
2022/04/13 11:08:23;;;;;;;6.58;1.00;;;;;;;7.06;68.49;99335.72;1746524;80;21018;-65
2022/04/13 11:10:51;;;;;;;3.90;1.65;;;;;;;6.92;69.45;99316.03;1767147;80;20989;-68
2022/04/13 11:13:22;;;;;;;3.90;0.93;;;;;;;6.84;69.73;99320.80;1726822;81;20959;-66
2022/04/13 11:15:51;;;;;;;5.45;0.88;;;;;;;6.85;70.84;99327.06;1750538;80;21483;-68
2022/04/13 11:18:20;;;;;;;2.35;1.30;;;;;;;6.88;70.20;99326.47;1770384;80;21435;-69
2022/04/13 11:21:08;;;;;;;5.05;1.30;;;;;;;6.85;70.01;99333.89;1762163;80;21407;-69
2022/04/13 11:23:54;;;;;;;1.32;0.80;;;;;;;6.80;71.00;99330.69;1759810;80;20913;-67
2022/04/13 11:26:41;;;;;;;2.30;0.90;;;;;;;6.73;71.40;99339.79;1756520;80;21058;-65
2022/04/13 11:29:17;;;;;;;3.22;1.07;;;;;;;6.67;72.34;99337.44;1745070;80;20995;-65
2022/04/13 11:32:05;;;;;;;4.87;1.10;;;;;;;6.54;73.16;99337.06;1753378;80;20925;-65
2022/04/13 11:34:53;;;;;;;2.42;1.02;;;;;;;6.45;73.70;99339.37;1768421;80;21257;-65
2022/04/13 11:37:28;;;;;;;2.85;1.12;;;;;;;6.40;74.14;99342.16;1761963;80;20842;-62
2022/04/13 11:40:10;;;;;;;11.18;2.45;;;;;;;6.38;74.47;99352.00;1729488;80;21085;-65
2022/04/13 11:42:46;;;;;;;9.85;1.80;;;;;;;6.37;74.79;99356.38;1758386;80;20923;-66
2022/04/13 11:45:18;;;;;;;24.07;4.72;;;;;;;6.37;75.16;99349.02;1743534;80;21040;-66
2022/04/13 11:47:58;;;;;;;5.05;2.30;;;;;;;6.37;75.16;99349.02;1741573;81;20928;-65
2022/04/13 11:50:33;;;;;;;5.00;1.40;;;;;;;6.32;75.45;99360.56;1776258;80;20879;-66
2022/04/13 11:53:07;;;;;;;9.68;2.30;;;;;;;6.27;75.53;99362.80;1766848;80;20971;-68
2022/04/13 11:55:43;;;;;;;2.95;1.35;;;;;;;6.18;76.20;99361.27;1769275;80;20963;-67
2022/04/13 11:58:20;;;;;;;11.10;2.30;;;;;;;6.11;76.36;99355.91;1765829;80;21110;-66
2022/04/13 12:01:08;;;;;;;12.10;2.17;;;;;;;6.04;76.98;99364.98;1748844;80;21174;-65
2022/04/13 12:03:42;;;;;;;12.00;2.87;;;;;;;5.99;77.26;99369.13;1727426;81;21419;-65
2022/04/13 12:06:12;;;;;;;12.00;3.45;;;;;;;5.94;77.92;99329.94;1703408;82;21408;-66
2022/04/13 12:08:49;;;;;;;10.23;3.05;;;;;;;5.89;77.84;99368.14;1725432;81;20928;-68